sensor_id;sensor_type;location;lat;lon;timestamp;temperature;humidity
12634;DHT22;6382;48.614;8.880;2023-04-03T00:01:04;2.50;99.90
12634;DHT22;6382;48.614;8.880;2023-04-03T00:03:31;2.50;99.90
12634;DHT22;6382;48.614;8.880;2023-04-03T00:05:58;2.50;99.90
12634;DHT22;6382;48.614;8.880;2023-04-03T00:08:26;2.50;99.90
12634;DHT22;6382;48.614;8.880;2023-04-03T00:10:52;2.50;99.90
12634;DHT22;6382;48.614;8.880;2023-04-03T00:13:19;2.40;99.90
12634;DHT22;6382;48.614;8.880;2023-04-03T00:15:48;2.40;99.90
12634;DHT22;6382;48.614;8.880;2023-04-03T00:18:14;1.50;99.90
12634;DHT22;6382;48.614;8.880;2023-04-03T00:20:41;2.50;99.90
12634;DHT22;6382;48.614;8.880;2023-04-03T00:23:08;2.40;99.90
12634;DHT22;6382;48.614;8.880;2023-04-03T00:25:35;2.40;99.90
12634;DHT22;6382;48.614;8.880;2023-04-03T00:28:03;2.50;99.90
12634;DHT22;6382;48.614;8.880;2023-04-03T00:30:30;2.50;99.90
12634;DHT22;6382;48.614;8.880;2023-04-03T00:32:57;2.40;99.90
12634;DHT22;6382;48.614;8.880;2023-04-03T00:35:24;2.40;99.90
12634;DHT22;6382;48.614;8.880;2023-04-03T00:37:51;2.50;99.90
12634;DHT22;6382;48.614;8.880;2023-04-03T00:40:19;2.40;99.90
12634;DHT22;6382;48.614;8.880;2023-04-03T00:42:47;2.50;99.90
12634;DHT22;6382;48.614;8.880;2023-04-03T00:47:41;2.30;99.90
12634;DHT22;6382;48.614;8.880;2023-04-03T00:50:08;2.40;99.90
12634;DHT22;6382;48.614;8.880;2023-04-03T00:52:36;2.40;99.90
12634;DHT22;6382;48.614;8.880;2023-04-03T00:55:05;2.40;99.90
12634;DHT22;6382;48.614;8.880;2023-04-03T00:57:32;2.40;99.90
12634;DHT22;6382;48.614;8.880;2023-04-03T01:00:07;2.40;99.90
12634;DHT22;6382;48.614;8.880;2023-04-03T01:02:35;2.40;99.90
12634;DHT22;6382;48.614;8.880;2023-04-03T01:05:03;2.40;99.90
12634;DHT22;6382;48.614;8.880;2023-04-03T01:07:30;2.30;99.90
12634;DHT22;6382;48.614;8.880;2023-04-03T01:09:57;3.80;99.90
12634;DHT22;6382;48.614;8.880;2023-04-03T01:12:26;2.30;99.90
12634;DHT22;6382;48.614;8.880;2023-04-03T01:14:57;2.30;99.90
12634;DHT22;6382;48.614;8.880;2023-04-03T01:19:52;2.60;99.90
12634;DHT22;6382;48.614;8.880;2023-04-03T01:22:26;2.40;99.90
12634;DHT22;6382;48.614;8.880;2023-04-03T01:24:57;5.20;99.90
12634;DHT22;6382;48.614;8.880;2023-04-03T01:27:24;2.30;99.90
12634;DHT22;6382;48.614;8.880;2023-04-03T01:29:51;2.30;99.90
12634;DHT22;6382;48.614;8.880;2023-04-03T01:32:18;2.30;99.90
12634;DHT22;6382;48.614;8.880;2023-04-03T01:34:44;2.30;99.90
12634;DHT22;6382;48.614;8.880;2023-04-03T01:37:11;2.20;99.90
12634;DHT22;6382;48.614;8.880;2023-04-03T01:39:38;2.30;99.90
12634;DHT22;6382;48.614;8.880;2023-04-03T01:42:05;5.10;99.90
12634;DHT22;6382;48.614;8.880;2023-04-03T01:44:32;2.30;99.90
12634;DHT22;6382;48.614;8.880;2023-04-03T01:46:58;2.30;99.90
12634;DHT22;6382;48.614;8.880;2023-04-03T01:49:25;2.30;99.90
12634;DHT22;6382;48.614;8.880;2023-04-03T01:51:52;2.20;99.90
12634;DHT22;6382;48.614;8.880;2023-04-03T01:54:19;2.30;99.90
12634;DHT22;6382;48.614;8.880;2023-04-03T01:56:46;2.30;99.90
12634;DHT22;6382;48.614;8.880;2023-04-03T01:59:12;2.20;99.90
12634;DHT22;6382;48.614;8.880;2023-04-03T02:01:39;2.20;99.90
12634;DHT22;6382;48.614;8.880;2023-04-03T02:04:06;4.20;99.90
12634;DHT22;6382;48.614;8.880;2023-04-03T02:06:33;2.10;99.90
12634;DHT22;6382;48.614;8.880;2023-04-03T02:09:00;2.20;99.90
12634;DHT22;6382;48.614;8.880;2023-04-03T02:11:27;2.10;99.90
12634;DHT22;6382;48.614;8.880;2023-04-03T02:13:53;4.40;99.90
12634;DHT22;6382;48.614;8.880;2023-04-03T02:16:20;2.10;99.90
12634;DHT22;6382;48.614;8.880;2023-04-03T02:18:47;2.10;99.90
12634;DHT22;6382;48.614;8.880;2023-04-03T02:21:14;4.50;99.90
12634;DHT22;6382;48.614;8.880;2023-04-03T02:23:41;2.10;99.90
12634;DHT22;6382;48.614;8.880;2023-04-03T02:26:11;2.10;99.90
12634;DHT22;6382;48.614;8.880;2023-04-03T02:28:38;2.10;99.90
12634;DHT22;6382;48.614;8.880;2023-04-03T02:31:06;2.10;99.90
12634;DHT22;6382;48.614;8.880;2023-04-03T02:33:33;2.00;99.90
12634;DHT22;6382;48.614;8.880;2023-04-03T02:36:00;2.00;99.90
12634;DHT22;6382;48.614;8.880;2023-04-03T02:38:27;2.00;99.90
12634;DHT22;6382;48.614;8.880;2023-04-03T02:40:59;2.00;99.90
12634;DHT22;6382;48.614;8.880;2023-04-03T02:43:25;2.10;99.90
12634;DHT22;6382;48.614;8.880;2023-04-03T02:45:52;2.00;99.90
12634;DHT22;6382;48.614;8.880;2023-04-03T02:48:19;2.00;99.90
12634;DHT22;6382;48.614;8.880;2023-04-03T02:50:45;2.00;99.90
12634;DHT22;6382;48.614;8.880;2023-04-03T02:53:12;2.00;99.90
12634;DHT22;6382;48.614;8.880;2023-04-03T02:55:39;2.00;99.90
12634;DHT22;6382;48.614;8.880;2023-04-03T02:58:06;2.00;99.90
12634;DHT22;6382;48.614;8.880;2023-04-03T03:00:35;2.00;99.90
12634;DHT22;6382;48.614;8.880;2023-04-03T03:03:02;2.00;99.90
12634;DHT22;6382;48.614;8.880;2023-04-03T03:05:29;1.90;99.90
12634;DHT22;6382;48.614;8.880;2023-04-03T03:07:56;2.00;99.90
12634;DHT22;6382;48.614;8.880;2023-04-03T03:10:23;1.90;99.90
12634;DHT22;6382;48.614;8.880;2023-04-03T03:12:50;1.90;99.90
12634;DHT22;6382;48.614;8.880;2023-04-03T03:15:17;1.90;99.90
12634;DHT22;6382;48.614;8.880;2023-04-03T03:17:45;1.90;99.90
12634;DHT22;6382;48.614;8.880;2023-04-03T03:20:12;1.90;99.90
12634;DHT22;6382;48.614;8.880;2023-04-03T03:22:41;1.90;99.90
12634;DHT22;6382;48.614;8.880;2023-04-03T03:25:08;1.90;99.90
12634;DHT22;6382;48.614;8.880;2023-04-03T03:27:35;1.90;99.90
12634;DHT22;6382;48.614;8.880;2023-04-03T03:30:02;1.90;99.90
12634;DHT22;6382;48.614;8.880;2023-04-03T03:32:29;1.90;99.90
12634;DHT22;6382;48.614;8.880;2023-04-03T03:34:56;2.00;99.90
12634;DHT22;6382;48.614;8.880;2023-04-03T03:37:22;1.90;99.90
12634;DHT22;6382;48.614;8.880;2023-04-03T03:39:49;1.90;99.90
12634;DHT22;6382;48.614;8.880;2023-04-03T03:42:16;1.90;99.90
12634;DHT22;6382;48.614;8.880;2023-04-03T03:44:42;1.90;99.90
12634;DHT22;6382;48.614;8.880;2023-04-03T03:47:09;1.90;99.90
12634;DHT22;6382;48.614;8.880;2023-04-03T03:49:37;1.90;99.90
12634;DHT22;6382;48.614;8.880;2023-04-03T03:52:03;1.90;99.90
12634;DHT22;6382;48.614;8.880;2023-04-03T03:54:30;1.90;99.90
12634;DHT22;6382;48.614;8.880;2023-04-03T03:56:57;1.90;99.90
12634;DHT22;6382;48.614;8.880;2023-04-03T03:59:24;1.90;99.90
12634;DHT22;6382;48.614;8.880;2023-04-03T04:01:51;3.60;99.90
12634;DHT22;6382;48.614;8.880;2023-04-03T04:04:18;4.30;99.90
12634;DHT22;6382;48.614;8.880;2023-04-03T04:06:45;1.80;99.90
12634;DHT22;6382;48.614;8.880;2023-04-03T04:09:12;1.80;99.90
12634;DHT22;6382;48.614;8.880;2023-04-03T04:11:39;1.80;99.90
12634;DHT22;6382;48.614;8.880;2023-04-03T04:14:06;1.90;99.90
12634;DHT22;6382;48.614;8.880;2023-04-03T04:16:33;1.90;99.90
12634;DHT22;6382;48.614;8.880;2023-04-03T04:19:00;2.00;99.90
12634;DHT22;6382;48.614;8.880;2023-04-03T04:21:27;4.70;99.90
12634;DHT22;6382;48.614;8.880;2023-04-03T04:23:54;1.90;99.90
12634;DHT22;6382;48.614;8.880;2023-04-03T04:26:21;1.90;99.90
12634;DHT22;6382;48.614;8.880;2023-04-03T04:28:47;2.00;99.90
12634;DHT22;6382;48.614;8.880;2023-04-03T04:31:14;2.40;99.90
12634;DHT22;6382;48.614;8.880;2023-04-03T04:33:41;2.00;99.90
12634;DHT22;6382;48.614;8.880;2023-04-03T04:36:08;2.00;99.90
12634;DHT22;6382;48.614;8.880;2023-04-03T04:38:34;3.80;99.90
12634;DHT22;6382;48.614;8.880;2023-04-03T04:41:02;2.00;99.90
12634;DHT22;6382;48.614;8.880;2023-04-03T04:43:28;5.10;99.90
12634;DHT22;6382;48.614;8.880;2023-04-03T04:46:02;2.00;99.90
12634;DHT22;6382;48.614;8.880;2023-04-03T04:48:29;1.90;99.90
12634;DHT22;6382;48.614;8.880;2023-04-03T04:50:58;1.90;99.90
12634;DHT22;6382;48.614;8.880;2023-04-03T04:53:24;2.00;99.90
12634;DHT22;6382;48.614;8.880;2023-04-03T04:55:52;4.10;99.90
12634;DHT22;6382;48.614;8.880;2023-04-03T04:58:19;2.00;99.90
12634;DHT22;6382;48.614;8.880;2023-04-03T05:00:46;2.00;99.90
12634;DHT22;6382;48.614;8.880;2023-04-03T05:03:13;2.00;99.90
12634;DHT22;6382;48.614;8.880;2023-04-03T05:05:40;2.00;99.90
12634;DHT22;6382;48.614;8.880;2023-04-03T05:08:07;2.00;99.90
12634;DHT22;6382;48.614;8.880;2023-04-03T05:10:34;2.00;99.90
12634;DHT22;6382;48.614;8.880;2023-04-03T05:13:01;2.00;99.90
12634;DHT22;6382;48.614;8.880;2023-04-03T05:15:28;2.00;99.90
12634;DHT22;6382;48.614;8.880;2023-04-03T05:17:55;2.00;99.90
12634;DHT22;6382;48.614;8.880;2023-04-03T05:20:21;2.00;99.90
12634;DHT22;6382;48.614;8.880;2023-04-03T05:22:48;2.10;99.90
12634;DHT22;6382;48.614;8.880;2023-04-03T05:25:15;2.00;99.90
12634;DHT22;6382;48.614;8.880;2023-04-03T05:27:42;3.70;99.90
12634;DHT22;6382;48.614;8.880;2023-04-03T05:30:08;2.10;99.90
12634;DHT22;6382;48.614;8.880;2023-04-03T05:32:35;2.10;99.90
12634;DHT22;6382;48.614;8.880;2023-04-03T05:35:02;2.10;99.90
12634;DHT22;6382;48.614;8.880;2023-04-03T05:37:28;2.10;99.90
12634;DHT22;6382;48.614;8.880;2023-04-03T05:39:56;2.00;99.90
12634;DHT22;6382;48.614;8.880;2023-04-03T05:42:22;2.20;99.90
12634;DHT22;6382;48.614;8.880;2023-04-03T05:44:49;2.20;99.90
12634;DHT22;6382;48.614;8.880;2023-04-03T05:47:17;2.20;99.90
12634;DHT22;6382;48.614;8.880;2023-04-03T05:49:43;2.30;99.90
12634;DHT22;6382;48.614;8.880;2023-04-03T05:52:17;2.20;99.90
12634;DHT22;6382;48.614;8.880;2023-04-03T05:54:44;2.30;99.90
12634;DHT22;6382;48.614;8.880;2023-04-03T05:57:15;2.30;99.90
12634;DHT22;6382;48.614;8.880;2023-04-03T05:59:42;5.80;99.90
12634;DHT22;6382;48.614;8.880;2023-04-03T06:02:13;2.30;99.90
12634;DHT22;6382;48.614;8.880;2023-04-03T06:04:40;2.30;99.90
12634;DHT22;6382;48.614;8.880;2023-04-03T06:07:08;2.40;99.90
12634;DHT22;6382;48.614;8.880;2023-04-03T06:09:36;2.40;99.90
12634;DHT22;6382;48.614;8.880;2023-04-03T06:12:03;2.50;99.90
12634;DHT22;6382;48.614;8.880;2023-04-03T06:14:29;2.50;99.90
12634;DHT22;6382;48.614;8.880;2023-04-03T06:16:56;2.60;99.90
12634;DHT22;6382;48.614;8.880;2023-04-03T06:19:24;2.60;99.90
12634;DHT22;6382;48.614;8.880;2023-04-03T06:21:50;2.60;99.90
12634;DHT22;6382;48.614;8.880;2023-04-03T06:24:17;2.70;99.90
12634;DHT22;6382;48.614;8.880;2023-04-03T06:26:44;2.70;99.90
12634;DHT22;6382;48.614;8.880;2023-04-03T06:29:12;2.70;99.90
12634;DHT22;6382;48.614;8.880;2023-04-03T06:31:41;2.70;99.90
12634;DHT22;6382;48.614;8.880;2023-04-03T06:34:07;2.80;99.90
12634;DHT22;6382;48.614;8.880;2023-04-03T06:36:35;2.80;99.90
12634;DHT22;6382;48.614;8.880;2023-04-03T06:39:02;2.80;99.90
12634;DHT22;6382;48.614;8.880;2023-04-03T06:41:29;2.80;99.90
12634;DHT22;6382;48.614;8.880;2023-04-03T06:43:56;2.80;99.90
12634;DHT22;6382;48.614;8.880;2023-04-03T06:46:25;2.80;99.90
12634;DHT22;6382;48.614;8.880;2023-04-03T06:48:52;3.40;99.90
12634;DHT22;6382;48.614;8.880;2023-04-03T06:51:26;2.80;99.90
12634;DHT22;6382;48.614;8.880;2023-04-03T06:53:55;2.80;99.90
12634;DHT22;6382;48.614;8.880;2023-04-03T06:56:22;2.70;99.90
12634;DHT22;6382;48.614;8.880;2023-04-03T06:58:49;2.70;99.90
12634;DHT22;6382;48.614;8.880;2023-04-03T07:01:17;2.70;99.90
12634;DHT22;6382;48.614;8.880;2023-04-03T07:03:46;2.70;99.90
12634;DHT22;6382;48.614;8.880;2023-04-03T07:06:13;2.70;99.90
12634;DHT22;6382;48.614;8.880;2023-04-03T07:08:40;2.80;99.90
12634;DHT22;6382;48.614;8.880;2023-04-03T07:11:07;2.80;99.90
12634;DHT22;6382;48.614;8.880;2023-04-03T07:13:34;3.00;99.90
12634;DHT22;6382;48.614;8.880;2023-04-03T07:16:01;3.10;99.90
12634;DHT22;6382;48.614;8.880;2023-04-03T07:18:28;3.10;99.90
12634;DHT22;6382;48.614;8.880;2023-04-03T07:20:55;3.20;99.90
12634;DHT22;6382;48.614;8.880;2023-04-03T07:23:22;3.20;99.90
12634;DHT22;6382;48.614;8.880;2023-04-03T07:25:49;3.30;99.90
12634;DHT22;6382;48.614;8.880;2023-04-03T07:28:17;3.30;99.90
12634;DHT22;6382;48.614;8.880;2023-04-03T07:30:45;3.50;99.90
12634;DHT22;6382;48.614;8.880;2023-04-03T07:33:13;3.40;99.90
12634;DHT22;6382;48.614;8.880;2023-04-03T07:35:40;3.40;99.90
12634;DHT22;6382;48.614;8.880;2023-04-03T07:38:07;3.40;99.90
12634;DHT22;6382;48.614;8.880;2023-04-03T07:40:34;3.40;99.90
12634;DHT22;6382;48.614;8.880;2023-04-03T07:43:02;3.40;99.90
12634;DHT22;6382;48.614;8.880;2023-04-03T07:45:28;6.30;99.90
12634;DHT22;6382;48.614;8.880;2023-04-03T07:47:55;3.50;99.90
12634;DHT22;6382;48.614;8.880;2023-04-03T07:50:23;3.50;99.90
12634;DHT22;6382;48.614;8.880;2023-04-03T07:52:50;3.70;99.90
12634;DHT22;6382;48.614;8.880;2023-04-03T07:55:17;3.90;99.90
12634;DHT22;6382;48.614;8.880;2023-04-03T07:57:44;3.80;99.90
12634;DHT22;6382;48.614;8.880;2023-04-03T08:00:10;3.80;99.90
12634;DHT22;6382;48.614;8.880;2023-04-03T08:02:38;3.70;99.90
12634;DHT22;6382;48.614;8.880;2023-04-03T08:05:07;3.70;99.90
12634;DHT22;6382;48.614;8.880;2023-04-03T08:07:34;3.60;99.90
12634;DHT22;6382;48.614;8.880;2023-04-03T08:10:02;3.80;99.90
12634;DHT22;6382;48.614;8.880;2023-04-03T08:12:29;3.80;99.90
12634;DHT22;6382;48.614;8.880;2023-04-03T08:14:59;4.00;99.90
12634;DHT22;6382;48.614;8.880;2023-04-03T08:17:27;4.10;99.90
12634;DHT22;6382;48.614;8.880;2023-04-03T08:19:53;5.80;99.90
12634;DHT22;6382;48.614;8.880;2023-04-03T08:22:20;4.20;99.90
12634;DHT22;6382;48.614;8.880;2023-04-03T08:24:47;4.20;99.90
12634;DHT22;6382;48.614;8.880;2023-04-03T08:27:25;4.20;99.90
12634;DHT22;6382;48.614;8.880;2023-04-03T08:29:53;4.30;99.90
12634;DHT22;6382;48.614;8.880;2023-04-03T08:32:20;4.30;99.90
12634;DHT22;6382;48.614;8.880;2023-04-03T08:34:46;4.40;99.90
12634;DHT22;6382;48.614;8.880;2023-04-03T08:37:13;4.40;99.90
12634;DHT22;6382;48.614;8.880;2023-04-03T08:39:40;4.60;99.90
12634;DHT22;6382;48.614;8.880;2023-04-03T08:42:51;4.40;99.90
12634;DHT22;6382;48.614;8.880;2023-04-03T08:47:59;4.40;99.90
12634;DHT22;6382;48.614;8.880;2023-04-03T08:50:30;4.60;99.90
12634;DHT22;6382;48.614;8.880;2023-04-03T08:52:58;6.60;99.90
12634;DHT22;6382;48.614;8.880;2023-04-03T08:55:27;4.50;99.90
12634;DHT22;6382;48.614;8.880;2023-04-03T08:58:01;7.70;99.90
12634;DHT22;6382;48.614;8.880;2023-04-03T09:00:41;4.30;99.90
12634;DHT22;6382;48.614;8.880;2023-04-03T09:03:15;4.40;99.90
12634;DHT22;6382;48.614;8.880;2023-04-03T09:05:47;4.40;99.90
12634;DHT22;6382;48.614;8.880;2023-04-03T09:08:21;4.30;99.90
12634;DHT22;6382;48.614;8.880;2023-04-03T09:10:49;4.30;99.90
12634;DHT22;6382;48.614;8.880;2023-04-03T09:13:28;4.30;99.90
12634;DHT22;6382;48.614;8.880;2023-04-03T09:15:56;4.20;99.90
12634;DHT22;6382;48.614;8.880;2023-04-03T09:18:30;4.20;99.90
12634;DHT22;6382;48.614;8.880;2023-04-03T09:21:17;4.20;99.90
12634;DHT22;6382;48.614;8.880;2023-04-03T09:23:51;4.20;99.90
12634;DHT22;6382;48.614;8.880;2023-04-03T09:26:19;4.10;99.90
12634;DHT22;6382;48.614;8.880;2023-04-03T09:28:48;4.20;99.90
12634;DHT22;6382;48.614;8.880;2023-04-03T09:31:23;7.10;99.90
12634;DHT22;6382;48.614;8.880;2023-04-03T09:33:55;4.20;99.90
12634;DHT22;6382;48.614;8.880;2023-04-03T09:36:39;5.00;99.90
12634;DHT22;6382;48.614;8.880;2023-04-03T09:39:10;4.20;99.90
12634;DHT22;6382;48.614;8.880;2023-04-03T09:41:37;4.30;99.90
12634;DHT22;6382;48.614;8.880;2023-04-03T09:44:04;4.30;99.90
12634;DHT22;6382;48.614;8.880;2023-04-03T09:46:44;4.40;99.90
12634;DHT22;6382;48.614;8.880;2023-04-03T09:49:10;4.50;99.90
12634;DHT22;6382;48.614;8.880;2023-04-03T09:51:38;4.60;99.90
12634;DHT22;6382;48.614;8.880;2023-04-03T09:54:24;4.70;99.90
12634;DHT22;6382;48.614;8.880;2023-04-03T09:56:53;4.60;99.90
12634;DHT22;6382;48.614;8.880;2023-04-03T09:59:22;4.70;99.90
12634;DHT22;6382;48.614;8.880;2023-04-03T10:02:04;4.70;99.90
12634;DHT22;6382;48.614;8.880;2023-04-03T10:04:44;4.70;99.90
12634;DHT22;6382;48.614;8.880;2023-04-03T10:07:28;4.60;99.90
12634;DHT22;6382;48.614;8.880;2023-04-03T10:09:56;4.40;99.90
12634;DHT22;6382;48.614;8.880;2023-04-03T10:12:23;4.30;99.90
12634;DHT22;6382;48.614;8.880;2023-04-03T10:14:59;4.30;99.90
12634;DHT22;6382;48.614;8.880;2023-04-03T10:20:06;4.30;99.90
12634;DHT22;6382;48.614;8.880;2023-04-03T10:30:19;4.30;99.90
12634;DHT22;6382;48.614;8.880;2023-04-03T10:32:57;4.30;99.90
12634;DHT22;6382;48.614;8.880;2023-04-03T10:35:30;4.50;99.90
12634;DHT22;6382;48.614;8.880;2023-04-03T10:40:54;4.60;99.90
12634;DHT22;6382;48.614;8.880;2023-04-03T10:53:55;4.70;99.90
12634;DHT22;6382;48.614;8.880;2023-04-03T10:56:37;4.70;99.90
12634;DHT22;6382;48.614;8.880;2023-04-03T11:01:33;7.10;99.90
12634;DHT22;6382;48.614;8.880;2023-04-03T11:04:00;5.00;99.90
12634;DHT22;6382;48.614;8.880;2023-04-03T11:06:37;5.00;99.90
12634;DHT22;6382;48.614;8.880;2023-04-03T11:09:19;5.00;99.90
12634;DHT22;6382;48.614;8.880;2023-04-03T11:11:48;5.00;99.90
12634;DHT22;6382;48.614;8.880;2023-04-03T11:14:29;7.70;99.90
12634;DHT22;6382;48.614;8.880;2023-04-03T11:17:11;4.90;99.90
12634;DHT22;6382;48.614;8.880;2023-04-03T11:22:23;4.80;99.90
12634;DHT22;6382;48.614;8.880;2023-04-03T11:25:03;4.80;99.90
12634;DHT22;6382;48.614;8.880;2023-04-03T11:27:33;5.00;99.90
12634;DHT22;6382;48.614;8.880;2023-04-03T11:30:03;5.00;99.90
12634;DHT22;6382;48.614;8.880;2023-04-03T11:35:04;5.10;99.90
12634;DHT22;6382;48.614;8.880;2023-04-03T11:37:37;5.20;99.90
12634;DHT22;6382;48.614;8.880;2023-04-03T11:40:18;5.30;99.90
12634;DHT22;6382;48.614;8.880;2023-04-03T11:42:46;5.20;99.90
12634;DHT22;6382;48.614;8.880;2023-04-03T11:47:51;5.00;99.90
12634;DHT22;6382;48.614;8.880;2023-04-03T11:58:12;5.60;99.90
12634;DHT22;6382;48.614;8.880;2023-04-03T12:11:13;5.10;99.90
12634;DHT22;6382;48.614;8.880;2023-04-03T12:13:41;5.00;99.90
12634;DHT22;6382;48.614;8.880;2023-04-03T12:16:21;5.00;99.90
12634;DHT22;6382;48.614;8.880;2023-04-03T12:21:16;4.90;99.90
12634;DHT22;6382;48.614;8.880;2023-04-03T12:23:56;4.90;99.90
12634;DHT22;6382;48.614;8.880;2023-04-03T12:26:25;4.80;99.90
12634;DHT22;6382;48.614;8.880;2023-04-03T12:29:14;6.50;99.90
12634;DHT22;6382;48.614;8.880;2023-04-03T12:34:36;4.80;99.90
12634;DHT22;6382;48.614;8.880;2023-04-03T12:37:15;4.90;99.90
12634;DHT22;6382;48.614;8.880;2023-04-03T12:42:15;5.10;99.90
12634;DHT22;6382;48.614;8.880;2023-04-03T12:44:50;5.20;99.90
12634;DHT22;6382;48.614;8.880;2023-04-03T12:47:36;5.40;99.90
12634;DHT22;6382;48.614;8.880;2023-04-03T12:50:13;5.40;99.90
12634;DHT22;6382;48.614;8.880;2023-04-03T12:52:44;5.40;99.90
12634;DHT22;6382;48.614;8.880;2023-04-03T12:55:19;5.30;99.90
12634;DHT22;6382;48.614;8.880;2023-04-03T12:57:46;5.20;99.90
12634;DHT22;6382;48.614;8.880;2023-04-03T13:00:21;5.20;99.90
12634;DHT22;6382;48.614;8.880;2023-04-03T13:02:48;5.00;99.90
12634;DHT22;6382;48.614;8.880;2023-04-03T13:05:19;5.00;99.90
12634;DHT22;6382;48.614;8.880;2023-04-03T13:07:58;5.00;99.90
12634;DHT22;6382;48.614;8.880;2023-04-03T13:10:25;4.80;99.90
12634;DHT22;6382;48.614;8.880;2023-04-03T13:12:53;4.80;99.90
12634;DHT22;6382;48.614;8.880;2023-04-03T13:15:22;4.70;99.90
12634;DHT22;6382;48.614;8.880;2023-04-03T13:17:50;4.80;99.90
12634;DHT22;6382;48.614;8.880;2023-04-03T13:20:24;5.00;99.90
12634;DHT22;6382;48.614;8.880;2023-04-03T13:25:24;5.20;99.90
12634;DHT22;6382;48.614;8.880;2023-04-03T13:27:53;5.30;99.90
12634;DHT22;6382;48.614;8.880;2023-04-03T13:30:38;5.40;99.90
12634;DHT22;6382;48.614;8.880;2023-04-03T13:33:18;5.50;99.90
12634;DHT22;6382;48.614;8.880;2023-04-03T13:35:45;5.60;99.90
12634;DHT22;6382;48.614;8.880;2023-04-03T13:40:46;5.40;99.90
12634;DHT22;6382;48.614;8.880;2023-04-03T13:43:21;5.30;99.90
12634;DHT22;6382;48.614;8.880;2023-04-03T13:48:35;5.40;99.90
12634;DHT22;6382;48.614;8.880;2023-04-03T13:51:12;5.30;99.90
12634;DHT22;6382;48.614;8.880;2023-04-03T13:53:47;5.30;99.90
12634;DHT22;6382;48.614;8.880;2023-04-03T13:56:25;5.30;99.90
12634;DHT22;6382;48.614;8.880;2023-04-03T13:58:57;5.30;99.90
12634;DHT22;6382;48.614;8.880;2023-04-03T14:01:24;5.20;99.90
12634;DHT22;6382;48.614;8.880;2023-04-03T14:04:01;5.30;99.90
12634;DHT22;6382;48.614;8.880;2023-04-03T14:06:28;5.20;99.90
12634;DHT22;6382;48.614;8.880;2023-04-03T14:08:55;5.40;99.90
12634;DHT22;6382;48.614;8.880;2023-04-03T14:11:24;5.40;99.90
12634;DHT22;6382;48.614;8.880;2023-04-03T14:13:51;5.50;99.90
12634;DHT22;6382;48.614;8.880;2023-04-03T14:16:18;5.60;99.90
12634;DHT22;6382;48.614;8.880;2023-04-03T14:18:47;5.50;99.90
12634;DHT22;6382;48.614;8.880;2023-04-03T14:21:15;5.50;99.90
12634;DHT22;6382;48.614;8.880;2023-04-03T14:23:42;5.50;99.90
12634;DHT22;6382;48.614;8.880;2023-04-03T14:26:11;5.50;99.90
12634;DHT22;6382;48.614;8.880;2023-04-03T14:28:38;8.80;99.90
12634;DHT22;6382;48.614;8.880;2023-04-03T14:31:10;5.30;99.90
12634;DHT22;6382;48.614;8.880;2023-04-03T14:33:39;5.20;99.90
12634;DHT22;6382;48.614;8.880;2023-04-03T14:36:12;5.20;99.90
12634;DHT22;6382;48.614;8.880;2023-04-03T14:38:40;5.20;99.90
12634;DHT22;6382;48.614;8.880;2023-04-03T14:41:07;5.30;99.90
12634;DHT22;6382;48.614;8.880;2023-04-03T14:43:42;5.30;99.90
12634;DHT22;6382;48.614;8.880;2023-04-03T14:46:14;5.30;99.90
12634;DHT22;6382;48.614;8.880;2023-04-03T14:48:40;5.20;99.90
12634;DHT22;6382;48.614;8.880;2023-04-03T14:51:09;5.20;99.90
12634;DHT22;6382;48.614;8.880;2023-04-03T14:53:36;5.30;99.90
12634;DHT22;6382;48.614;8.880;2023-04-03T14:56:39;7.10;99.90
12634;DHT22;6382;48.614;8.880;2023-04-03T14:58:59;5.40;99.90
12634;DHT22;6382;48.614;8.880;2023-04-03T15:01:29;8.40;99.90
12634;DHT22;6382;48.614;8.880;2023-04-03T15:03:56;5.40;99.90
12634;DHT22;6382;48.614;8.880;2023-04-03T15:06:23;5.40;99.90
12634;DHT22;6382;48.614;8.880;2023-04-03T15:08:50;5.50;99.90
12634;DHT22;6382;48.614;8.880;2023-04-03T15:11:17;7.20;99.90
12634;DHT22;6382;48.614;8.880;2023-04-03T15:13:43;5.20;99.90
12634;DHT22;6382;48.614;8.880;2023-04-03T15:16:15;5.20;99.90
12634;DHT22;6382;48.614;8.880;2023-04-03T15:18:43;5.20;99.90
12634;DHT22;6382;48.614;8.880;2023-04-03T15:21:10;5.20;99.90
12634;DHT22;6382;48.614;8.880;2023-04-03T15:23:37;6.10;99.90
12634;DHT22;6382;48.614;8.880;2023-04-03T15:26:04;5.40;99.90
12634;DHT22;6382;48.614;8.880;2023-04-03T15:28:38;5.40;99.90
12634;DHT22;6382;48.614;8.880;2023-04-03T15:31:05;5.40;99.90
12634;DHT22;6382;48.614;8.880;2023-04-03T15:33:33;8.10;99.90
12634;DHT22;6382;48.614;8.880;2023-04-03T15:36:01;5.40;99.90
12634;DHT22;6382;48.614;8.880;2023-04-03T15:38:37;5.30;99.90
12634;DHT22;6382;48.614;8.880;2023-04-03T15:41:04;5.20;99.90
12634;DHT22;6382;48.614;8.880;2023-04-03T15:43:31;5.20;99.90
12634;DHT22;6382;48.614;8.880;2023-04-03T15:46:00;5.10;99.90
12634;DHT22;6382;48.614;8.880;2023-04-03T15:48:27;5.20;99.90
12634;DHT22;6382;48.614;8.880;2023-04-03T15:50:54;5.30;99.90
12634;DHT22;6382;48.614;8.880;2023-04-03T15:53:23;5.40;99.90
12634;DHT22;6382;48.614;8.880;2023-04-03T15:55:50;5.40;99.90
12634;DHT22;6382;48.614;8.880;2023-04-03T15:58:17;5.50;99.90
12634;DHT22;6382;48.614;8.880;2023-04-03T16:00:44;4.90;99.90
12634;DHT22;6382;48.614;8.880;2023-04-03T16:03:12;8.40;99.90
12634;DHT22;6382;48.614;8.880;2023-04-03T16:05:41;5.30;99.90
12634;DHT22;6382;48.614;8.880;2023-04-03T16:08:07;7.50;99.90
12634;DHT22;6382;48.614;8.880;2023-04-03T16:10:35;5.30;99.90
12634;DHT22;6382;48.614;8.880;2023-04-03T16:13:02;5.20;99.90
12634;DHT22;6382;48.614;8.880;2023-04-03T16:15:29;5.20;99.90
12634;DHT22;6382;48.614;8.880;2023-04-03T16:17:57;5.20;99.90
12634;DHT22;6382;48.614;8.880;2023-04-03T16:20:24;5.10;99.90
12634;DHT22;6382;48.614;8.880;2023-04-03T16:22:51;5.20;99.90
12634;DHT22;6382;48.614;8.880;2023-04-03T16:25:18;5.10;99.90
12634;DHT22;6382;48.614;8.880;2023-04-03T16:27:45;5.10;99.90
12634;DHT22;6382;48.614;8.880;2023-04-03T16:30:12;7.80;99.90
12634;DHT22;6382;48.614;8.880;2023-04-03T16:32:39;5.10;99.90
12634;DHT22;6382;48.614;8.880;2023-04-03T16:35:06;5.00;99.90
12634;DHT22;6382;48.614;8.880;2023-04-03T16:37:33;5.00;99.90
12634;DHT22;6382;48.614;8.880;2023-04-03T16:40:00;5.10;99.90
12634;DHT22;6382;48.614;8.880;2023-04-03T16:42:27;7.70;99.90
12634;DHT22;6382;48.614;8.880;2023-04-03T16:44:54;5.00;99.90
12634;DHT22;6382;48.614;8.880;2023-04-03T16:47:20;5.00;99.90
12634;DHT22;6382;48.614;8.880;2023-04-03T16:49:47;4.90;99.90
12634;DHT22;6382;48.614;8.880;2023-04-03T16:52:14;4.80;99.90
12634;DHT22;6382;48.614;8.880;2023-04-03T16:54:41;5.50;99.90
12634;DHT22;6382;48.614;8.880;2023-04-03T16:57:07;4.80;99.90
12634;DHT22;6382;48.614;8.880;2023-04-03T16:59:34;4.80;99.90
12634;DHT22;6382;48.614;8.880;2023-04-03T17:02:01;4.90;99.90
12634;DHT22;6382;48.614;8.880;2023-04-03T17:04:29;4.90;99.90
12634;DHT22;6382;48.614;8.880;2023-04-03T17:06:55;4.80;99.90
12634;DHT22;6382;48.614;8.880;2023-04-03T17:09:22;4.80;99.90
12634;DHT22;6382;48.614;8.880;2023-04-03T17:11:49;4.80;99.90
12634;DHT22;6382;48.614;8.880;2023-04-03T17:14:16;4.80;99.90
12634;DHT22;6382;48.614;8.880;2023-04-03T17:16:43;4.80;99.90
12634;DHT22;6382;48.614;8.880;2023-04-03T17:19:10;4.80;99.90
12634;DHT22;6382;48.614;8.880;2023-04-03T17:21:38;4.80;99.90
12634;DHT22;6382;48.614;8.880;2023-04-03T17:24:05;3.70;99.90
12634;DHT22;6382;48.614;8.880;2023-04-03T17:26:35;4.70;99.90
12634;DHT22;6382;48.614;8.880;2023-04-03T17:29:03;4.80;99.90